メリークリスマス!!!

LUXURY FLIGHT

080-7560-1817

羽田空港本店: 所在地: 東京都大田区羽田空港3-3-2    セントレア店: 所在地: 愛知県常滑市セントレア1-1      HICityファイター店: 所在地: 東京都大田区羽田空港1-1-4
           第1旅客ターミナル5階                  FLIGHT OF DREAMS FLIGHT PARK                 HANEDA INNOVATION CITY ZONE-J 2-5
      営業時間: 10:00~20:00 定休日: 年中無休         営業時間: 10:00~20:00 定休日: 年中無休             営業時間: 10:00~20:00 定休日: 年中無休
      電話番号: 080-7560-1817                  電話番号: 080-4945-5666                     電話番号: 03-5579-7980

lv

メリークリスマス!!!

STAFF BLOG

2019/12/25 メリークリスマス!!!

中部からメリ~~~~~~クリスマス!!

 

RJGG 250100Z 35011KT 9999 FEW030 09/00 Q1026 NOSIG

 

今夜は、サンタさんが空を翔け、世界中を飛び回る日ですね!

 

ところで、皆さまは、某無料航空レーダーサイトご存知でしょうか?

そちらでは、24時間365日リアルタイムで、運航中の旅客航空機などを気軽にフォローできます

 

そして、そのサイトでは、毎年クリスマスには、ソリに乗り世界中を忙しく駆け巡るサンタさんを見られます(笑)

そんな多忙を極めるサンタさんが、
な、な、なんと!
先ほど、セントレア店にご来店くださいました! きっちり決めポーズ!!(笑)
%e3%82%b5%e3%83%b3%e3%82%bf
というか、サンタさんはパイロットライセンスを保有してるんでしょうか?

ソリの巡航速度や最大離陸重量、重心位置などものすごーーーーく気になり、質問してみたところ、

サンタさんは、しゃべることなく、

 

トナカイさん曰く「ヒ・ミ・ツ」とのこと(笑)

 

皆さまも、夜空とレーダーを使って、ぜひサンタさんを探してみてください

 

なお、汗水たらして働くサンタさんに触発され(?)、

年末につきましては、羽田本店・セントレア店共に、12/31(火)まで通常営業致します

 

また、年始につきましては、

羽田本店は、2020年1月1日〜3日までは、お休みとさせて頂きます。

お電話でのお問い合わせもお休みさせて頂きます。

1月4日より羽田本店及びコールセンターは通常営業となります。

 

 

セントレア店は、年始も休まず営業します!!

 

 

ご迷惑をお掛け致しますが、ご理解とご協力をよろしくお願い致します。

 

年末のスケジュールが埋まりつつありますため、お早めのご検討をいただけましたら、幸いです。

それでは、皆さまの「飛び締め」「飛び初め」をスタッフ一同、心よりお待ち致しております!

 

いつもブログをお読みくださり、誠にありがとうございます。
「感謝」

TOP